Time,TemperatureF,DewpointF,PressureIn,WindDirection,WindDirectionDegrees,WindSpeedMPH,WindSpeedGustMPH,Humidity,HourlyPrecipIn,Conditions,Clouds,dailyrainin,SoftwareType,DateUTC
2013-07-09 00:03:00,81.5,65.3,30.00,NE,42,0.0,0.0,58,0.00,CLR,CLR,0.00,WeatherDisplay:10.36,2013-07-09 05:03:00,
2013-07-09 00:08:00,81.5,65.8,30.00,NE,41,0.0,0.0,59,0.00,CLR,CLR,0.00,WeatherDisplay:10.36,2013-07-09 05:08:00,
2013-07-09 00:13:00,81.3,65.6,30.00,NE,41,0.0,0.0,59,0.00,CLR,CLR,0.00,WeatherDisplay:10.36,2013-07-09 05:13:00,
2013-07-09 00:18:00,81.3,65.6,30.00,NE,41,0.0,0.0,59,0.00,CLR,CLR,0.00,WeatherDisplay:10.36,2013-07-09 05:18:00,
2013-07-09 00:23:00,81.3,65.6,30.00,NE,41,0.0,0.0,59,0.00,CLR,CLR,0.00,WeatherDisplay:10.36,2013-07-09 05:23:00,
2013-07-09 00:28:00,81.3,66.1,30.00,NE,41,0.0,0.0,60,0.00,CLR,CLR,0.00,WeatherDisplay:10.36,2013-07-09 05:28:00,
2013-07-09 00:33:00,81.1,65.9,30.00,NE,41,0.0,0.0,60,0.00,CLR,CLR,0.00,WeatherDisplay:10.36,2013-07-09 05:33:00,
2013-07-09 00:38:00,81.1,65.9,30.00,NE,42,0.0,0.0,60,0.00,CLR,CLR,0.00,WeatherDisplay:10.36,2013-07-09 05:38:00,
2013-07-09 00:43:00,81.1,65.9,30.00,NE,41,0.0,0.0,60,0.00,CLR,CLR,0.00,WeatherDisplay:10.36,2013-07-09 05:43:00,
2013-07-09 00:48:00,81.1,65.9,30.00,NE,42,0.0,0.0,60,0.00,CLR,CLR,0.00,WeatherDisplay:10.36,2013-07-09 05:48:00,
2013-07-09 00:53:00,81.1,66.4,30.00,NE,41,0.0,0.0,61,0.00,CLR,CLR,0.00,WeatherDisplay:10.36,2013-07-09 05:53:00,
2013-07-09 00:58:00,81.0,66.2,30.00,NE,41,0.0,0.0,61,0.00,CLR,CLR,0.00,WeatherDisplay:10.36,2013-07-09 05:58:00,
2013-07-09 01:03:00,81.0,66.2,30.00,NE,40,0.0,0.0,61,0.00,CLR,CLR,0.00,WeatherDisplay:10.36,2013-07-09 06:03:00,
2013-07-09 01:08:00,81.0,66.2,30.00,NE,41,0.0,0.0,61,0.00,CLR,CLR,0.00,WeatherDisplay:10.36,2013-07-09 06:08:00,
2013-07-09 01:13:00,80.8,66.5,30.00,NE,42,0.0,0.0,62,0.00,CLR,CLR,0.00,WeatherDisplay:10.36,2013-07-09 06:13:00,
2013-07-09 01:18:00,80.8,66.5,30.00,NE,41,0.0,0.0,62,0.00,CLR,CLR,0.00,WeatherDisplay:10.36,2013-07-09 06:18:00,
2013-07-09 01:23:00,80.8,66.5,30.00,NE,42,0.0,0.0,62,0.00,CLR,CLR,0.00,WeatherDisplay:10.36,2013-07-09 06:23:00,
2013-07-09 01:28:00,80.8,67.0,30.00,NE,41,0.0,0.0,63,0.00,CLR,CLR,0.00,WeatherDisplay:10.36,2013-07-09 06:28:00,
2013-07-09 01:33:00,80.6,66.8,29.97,NE,38,3.1,0.0,63,0.00,CLR,CLR,0.00,WeatherDisplay:10.36,2013-07-09 06:33:00,
2013-07-09 01:38:00,80.6,66.8,29.97,NE,41,0.0,0.0,63,0.00,CLR,CLR,0.00,WeatherDisplay:10.36,2013-07-09 06:38:00,
2013-07-09 01:43:00,80.6,66.8,29.97,NE,41,0.0,0.0,63,0.00,CLR,CLR,0.00,WeatherDisplay:10.36,2013-07-09 06:43:00,
2013-07-09 01:48:00,80.6,66.8,30.00,NE,42,0.0,0.0,63,0.00,CLR,CLR,0.00,WeatherDisplay:10.36,2013-07-09 06:48:00,
2013-07-09 01:53:00,80.6,66.8,30.00,NE,41,0.0,0.0,63,0.00,CLR,CLR,0.00,WeatherDisplay:10.36,2013-07-09 06:53:00,
2013-07-09 01:58:00,80.6,67.3,30.00,NE,39,0.0,0.0,64,0.00,CLR,CLR,0.00,WeatherDisplay:10.36,2013-07-09 06:58:00,
2013-07-09 02:03:00,80.6,67.3,30.00,NE,39,0.0,0.0,64,0.00,CLR,CLR,0.00,WeatherDisplay:10.36,2013-07-09 07:03:00,
2013-07-09 02:08:00,80.6,67.3,30.00,NE,39,0.0,0.0,64,0.00,CLR,CLR,0.00,WeatherDisplay:10.36,2013-07-09 07:08:00,
2013-07-09 02:13:00,80.6,67.3,30.00,NE,41,0.0,0.0,64,0.00,CLR,CLR,0.00,WeatherDisplay:10.36,2013-07-09 07:13:00,
2013-07-09 02:18:00,80.6,67.3,29.97,NE,42,0.0,0.0,64,0.00,CLR,CLR,0.00,WeatherDisplay:10.36,2013-07-09 07:18:00,
2013-07-09 02:23:00,80.6,67.3,29.97,NE,38,0.0,0.0,64,0.00,CLR,CLR,0.00,WeatherDisplay:10.36,2013-07-09 07:23:00,
2013-07-09 02:28:00,80.4,67.1,29.97,NE,41,0.0,0.0,64,0.00,CLR,CLR,0.00,WeatherDisplay:10.36,2013-07-09 07:28:00,
2013-07-09 02:33:00,80.4,67.1,30.00,NE,40,0.0,0.0,64,0.00,CLR,CLR,0.00,WeatherDisplay:10.36,2013-07-09 07:33:00,
2013-07-09 02:38:00,80.4,67.1,30.00,NE,41,0.0,0.0,64,0.00,CLR,CLR,0.00,WeatherDisplay:10.36,2013-07-09 07:38:00,
2013-07-09 02:43:00,80.4,67.1,30.00,NE,41,5.8,5.8,64,0.00,CLR,CLR,0.00,WeatherDisplay:10.36,2013-07-09 07:43:00,
2013-07-09 02:48:00,80.4,67.1,30.00,NE,41,0.0,0.0,64,0.00,CLR,CLR,0.00,WeatherDisplay:10.36,2013-07-09 07:48:00,
2013-07-09 02:53:00,80.4,67.1,30.00,NE,39,3.1,0.0,64,0.00,CLR,CLR,0.00,WeatherDisplay:10.36,2013-07-09 07:53:00,
2013-07-09 02:58:00,80.4,67.1,30.00,NE,40,3.5,0.0,64,0.00,CLR,CLR,0.00,WeatherDisplay:10.36,2013-07-09 07:58:00,
2013-07-09 03:03:00,80.4,67.1,30.00,NE,40,4.9,4.9,64,0.00,CLR,CLR,0.00,WeatherDisplay:10.36,2013-07-09 08:03:00,
2013-07-09 03:08:00,80.4,66.7,30.00,NE,42,0.0,0.0,63,0.00,CLR,CLR,0.00,WeatherDisplay:10.36,2013-07-09 08:08:00,
2013-07-09 03:13:00,80.4,66.7,30.00,NE,40,5.8,5.8,63,0.00,CLR,CLR,0.00,WeatherDisplay:10.36,2013-07-09 08:13:00,
2013-07-09 03:18:00,80.2,66.5,30.00,NE,41,3.5,0.0,63,0.00,CLR,CLR,0.00,WeatherDisplay:10.36,2013-07-09 08:18:00,
2013-07-09 03:23:00,80.2,66.5,30.00,NE,38,4.6,0.0,63,0.00,CLR,CLR,0.00,WeatherDisplay:10.36,2013-07-09 08:23:00,
2013-07-09 03:28:00,80.2,66.5,30.00,NE,42,4.0,0.0,63,0.00,CLR,CLR,0.00,WeatherDisplay:10.36,2013-07-09 08:28:00,
2013-07-09 03:33:00,80.2,66.5,30.00,NE,44,3.6,0.0,63,0.00,CLR,CLR,0.00,WeatherDisplay:10.36,2013-07-09 08:33:00,
2013-07-09 03:38:00,80.2,66.5,30.00,NE,42,4.6,4.6,63,0.00,CLR,CLR,0.00,WeatherDisplay:10.36,2013-07-09 08:38:00,
2013-07-09 03:43:00,80.1,66.8,30.00,NE,42,3.1,0.0,64,0.00,CLR,CLR,0.00,WeatherDisplay:10.36,2013-07-09 08:43:00,
2013-07-09 03:48:00,79.9,66.6,30.00,NE,40,0.0,0.0,64,0.00,CLR,CLR,0.00,WeatherDisplay:10.36,2013-07-09 08:48:00,
2013-07-09 03:53:00,79.9,67.1,30.00,NE,41,0.0,0.0,65,0.00,CLR,CLR,0.00,WeatherDisplay:10.36,2013-07-09 08:53:00,
2013-07-09 03:58:00,79.7,66.9,30.00,NE,41,0.0,0.0,65,0.00,CLR,CLR,0.00,WeatherDisplay:10.36,2013-07-09 08:58:00,
2013-07-09 04:03:00,79.7,66.9,30.00,NE,42,0.0,0.0,65,0.00,CLR,CLR,0.00,WeatherDisplay:10.36,2013-07-09 09:03:00,
2013-07-09 04:08:00,79.5,66.7,30.00,NE,43,0.0,0.0,65,0.00,CLR,CLR,0.00,WeatherDisplay:10.36,2013-07-09 09:08:00,
2013-07-09 04:13:00,79.5,66.7,30.00,NE,41,0.0,0.0,65,0.00,CLR,CLR,0.00,WeatherDisplay:10.36,2013-07-09 09:13:00,
2013-07-09 04:18:00,79.5,66.7,30.00,NE,39,0.0,0.0,65,0.00,CLR,CLR,0.00,WeatherDisplay:10.36,2013-07-09 09:18:00,
2013-07-09 04:23:00,79.5,66.7,30.00,NE,41,0.0,0.0,65,0.00,CLR,CLR,0.00,WeatherDisplay:10.36,2013-07-09 09:23:00,
2013-07-09 04:28:00,79.3,66.5,30.00,NE,42,0.0,0.0,65,0.00,CLR,CLR,0.00,WeatherDisplay:10.36,2013-07-09 09:28:00,
2013-07-09 04:33:00,79.3,66.5,29.97,NE,42,0.0,0.0,65,0.00,CLR,CLR,0.00,WeatherDisplay:10.36,2013-07-09 09:33:00,
2013-07-09 04:38:00,79.3,66.5,29.97,NE,42,0.0,0.0,65,0.00,CLR,CLR,0.00,WeatherDisplay:10.36,2013-07-09 09:38:00,
2013-07-09 04:43:00,79.3,66.1,29.97,NE,42,3.5,0.0,64,0.00,CLR,CLR,0.00,WeatherDisplay:10.36,2013-07-09 09:43:00,
2013-07-09 04:48:00,79.3,66.1,29.97,NE,42,4.6,4.6,64,0.00,CLR,CLR,0.00,WeatherDisplay:10.36,2013-07-09 09:48:00,
2013-07-09 04:53:00,79.3,66.1,29.97,NE,38,3.6,0.0,64,0.00,CLR,CLR,0.00,WeatherDisplay:10.36,2013-07-09 09:53:00,
2013-07-09 04:58:00,79.3,65.6,29.97,NE,41,4.9,4.9,63,0.00,CLR,CLR,0.00,WeatherDisplay:10.36,2013-07-09 09:58:00,
2013-07-09 05:03:00,79.3,65.6,29.97,NE,39,0.0,0.0,63,0.00,CLR,CLR,0.00,WeatherDisplay:10.36,2013-07-09 10:03:00,
2013-07-09 05:08:00,79.3,65.6,29.97,NE,38,5.4,5.4,63,0.00,CLR,CLR,0.00,WeatherDisplay:10.36,2013-07-09 10:08:00,
2013-07-09 05:14:00,79.2,65.5,29.97,NE,41,5.8,0.0,63,0.00,CLR,CLR,0.00,WeatherDisplay:10.36,2013-07-09 10:14:00,
2013-07-09 05:19:00,79.2,65.5,29.97,NE,42,4.6,4.6,63,0.00,CLR,CLR,0.00,WeatherDisplay:10.36,2013-07-09 10:19:00,
2013-07-09 05:24:00,79.2,65.5,29.97,NE,38,3.5,0.0,63,0.00,CLR,CLR,0.00,WeatherDisplay:10.36,2013-07-09 10:24:00,
2013-07-09 05:29:00,79.2,65.5,29.97,NE,36,4.0,0.0,63,0.00,CLR,CLR,0.00,WeatherDisplay:10.36,2013-07-09 10:29:00,
2013-07-09 05:34:00,79.3,65.6,29.97,NE,39,5.8,5.8,63,0.00,CLR,CLR,0.00,WeatherDisplay:10.36,2013-07-09 10:34:00,
2013-07-09 05:39:00,79.3,65.6,29.97,NE,42,4.9,4.9,63,0.00,CLR,CLR,0.00,WeatherDisplay:10.36,2013-07-09 10:39:00,
2013-07-09 05:44:00,79.5,65.8,29.97,NE,39,4.9,4.9,63,0.00,CLR,CLR,0.00,WeatherDisplay:10.36,2013-07-09 10:44:00,
2013-07-09 05:49:00,79.7,66.4,30.00,NE,42,5.8,5.8,64,0.00,CLR,CLR,0.00,WeatherDisplay:10.36,2013-07-09 10:49:00,
2013-07-09 05:55:00,79.7,65.5,30.00,NE,39,4.6,4.6,62,0.00,CLR,CLR,0.00,WeatherDisplay:10.36,2013-07-09 10:55:00,
2013-07-09 06:00:00,79.7,65.5,30.00,NE,41,0.0,0.0,62,0.00,CLR,CLR,0.00,WeatherDisplay:10.36,2013-07-09 11:00:00,
2013-07-09 06:05:00,79.9,65.2,30.00,NE,40,4.6,4.6,61,0.00,CLR,CLR,0.00,WeatherDisplay:10.36,2013-07-09 11:05:00,
2013-07-09 06:10:00,79.7,65.1,30.00,NE,41,3.5,0.0,61,0.00,CLR,CLR,0.00,WeatherDisplay:10.36,2013-07-09 11:10:00,
2013-07-09 06:15:00,79.7,65.1,30.00,NE,42,4.6,4.6,61,0.00,CLR,CLR,0.00,WeatherDisplay:10.36,2013-07-09 11:15:00,
2013-07-09 06:20:00,79.7,65.1,30.00,NE,41,0.0,0.0,61,0.00,CLR,CLR,0.00,WeatherDisplay:10.36,2013-07-09 11:20:00,
2013-07-09 06:25:00,79.5,64.9,30.00,NE,41,0.0,0.0,61,0.00,CLR,CLR,0.00,WeatherDisplay:10.36,2013-07-09 11:25:00,
2013-07-09 06:31:00,79.5,65.4,30.00,NE,41,0.0,0.0,62,0.00,CLR,CLR,0.00,WeatherDisplay:10.36,2013-07-09 11:31:00,
2013-07-09 06:36:00,79.3,65.2,30.00,NE,41,0.0,0.0,62,0.00,CLR,CLR,0.00,WeatherDisplay:10.36,2013-07-09 11:36:00,
2013-07-09 06:41:00,79.3,65.2,30.00,NE,39,0.0,0.0,62,0.00,CLR,CLR,0.00,WeatherDisplay:10.36,2013-07-09 11:41:00,
2013-07-09 06:46:00,79.3,65.2,30.00,NE,42,3.5,0.0,62,0.00,CLR,CLR,0.00,WeatherDisplay:10.36,2013-07-09 11:46:00,
2013-07-09 06:52:00,79.3,65.2,30.00,NE,41,5.4,5.4,62,0.00,CLR,CLR,0.00,WeatherDisplay:10.36,2013-07-09 11:52:00,
2013-07-09 06:57:00,79.3,65.6,30.00,NE,41,2.3,0.0,63,0.00,CLR,CLR,0.00,WeatherDisplay:10.36,2013-07-09 11:57:00,
2013-07-09 07:02:00,79.3,65.6,30.00,NE,41,0.0,0.0,63,0.00,CLR,CLR,0.00,WeatherDisplay:10.36,2013-07-09 12:02:00,
2013-07-09 07:07:00,79.2,65.5,30.00,NE,41,4.0,0.0,63,0.00,CLR,CLR,0.00,WeatherDisplay:10.36,2013-07-09 12:07:00,
2013-07-09 07:12:00,79.2,65.9,30.00,NE,41,0.0,0.0,64,0.00,CLR,CLR,0.00,WeatherDisplay:10.36,2013-07-09 12:12:00,
2013-07-09 07:18:00,79.0,65.8,30.00,NE,39,3.5,0.0,64,0.00,CLR,CLR,0.00,WeatherDisplay:10.36,2013-07-09 12:18:00,
2013-07-09 07:23:00,78.8,66.0,30.00,NE,41,0.0,0.0,65,0.00,CLR,CLR,0.00,WeatherDisplay:10.36,2013-07-09 12:23:00,
2013-07-09 07:28:00,78.8,66.0,30.00,NE,42,0.0,0.0,65,0.00,CLR,CLR,0.00,WeatherDisplay:10.36,2013-07-09 12:28:00,
2013-07-09 07:33:00,78.8,66.0,30.00,NE,43,0.0,0.0,65,0.00,CLR,CLR,0.00,WeatherDisplay:10.36,2013-07-09 12:33:00,
2013-07-09 07:38:00,78.8,66.5,30.03,NE,41,0.0,0.0,66,0.00,CLR,CLR,0.00,WeatherDisplay:10.36,2013-07-09 12:38:00,
2013-07-09 07:43:00,78.8,66.5,30.03,NE,41,0.0,0.0,66,0.00,CLR,CLR,0.00,WeatherDisplay:10.36,2013-07-09 12:43:00,
2013-07-09 07:48:00,78.8,66.9,30.03,NE,41,0.0,0.0,67,0.00,CLR,CLR,0.00,WeatherDisplay:10.36,2013-07-09 12:48:00,
2013-07-09 07:53:00,79.0,67.1,30.03,NE,43,2.3,0.0,67,0.00,CLR,CLR,0.00,WeatherDisplay:10.36,2013-07-09 12:53:00,
2013-07-09 07:58:00,79.2,67.3,30.03,NE,42,3.6,0.0,67,0.00,CLR,CLR,0.00,WeatherDisplay:10.36,2013-07-09 12:58:00,
2013-07-09 08:03:00,79.3,67.4,30.03,NE,42,3.5,0.0,67,0.00,CLR,CLR,0.00,WeatherDisplay:10.36,2013-07-09 13:03:00,
2013-07-09 08:08:00,79.3,67.4,30.03,NE,42,0.0,0.0,67,0.00,CLR,CLR,0.00,WeatherDisplay:10.36,2013-07-09 13:08:00,
2013-07-09 08:13:00,79.5,67.6,30.03,NE,42,0.0,0.0,67,0.00,CLR,CLR,0.00,WeatherDisplay:10.36,2013-07-09 13:13:00,
2013-07-09 08:18:00,79.5,67.2,30.03,NE,42,0.0,0.0,66,0.00,CLR,CLR,0.00,WeatherDisplay:10.36,2013-07-09 13:18:00,
2013-07-09 08:23:00,79.3,67.0,30.03,NE,42,0.0,0.0,66,0.00,CLR,CLR,0.00,WeatherDisplay:10.36,2013-07-09 13:23:00,
2013-07-09 08:28:00,79.5,67.2,30.03,NE,45,0.0,0.0,66,0.00,CLR,CLR,0.00,WeatherDisplay:10.36,2013-07-09 13:28:00,
2013-07-09 08:33:00,79.5,67.2,30.03,NE,43,0.0,0.0,66,0.00,CLR,CLR,0.00,WeatherDisplay:10.36,2013-07-09 13:33:00,
2013-07-09 08:38:00,79.7,67.3,30.03,NE,43,0.0,0.0,66,0.00,CLR,CLR,0.00,WeatherDisplay:10.36,2013-07-09 13:38:00,
2013-07-09 08:43:00,79.9,67.5,30.03,NE,41,0.0,0.0,66,0.00,CLR,CLR,0.00,WeatherDisplay:10.36,2013-07-09 13:43:00,
2013-07-09 08:48:00,80.1,67.7,30.03,NE,42,0.0,0.0,66,0.00,CLR,CLR,0.00,WeatherDisplay:10.36,2013-07-09 13:48:00,
2013-07-09 08:53:00,80.2,67.8,30.03,NE,41,0.0,0.0,66,0.00,CLR,CLR,0.00,WeatherDisplay:10.36,2013-07-09 13:53:00,
2013-07-09 08:58:00,80.4,68.0,30.03,NE,41,0.0,0.0,66,0.00,CLR,CLR,0.00,WeatherDisplay:10.36,2013-07-09 13:58:00,
2013-07-09 09:03:00,80.6,67.7,30.03,NE,39,0.0,0.0,65,0.00,CLR,CLR,0.00,WeatherDisplay:10.36,2013-07-09 14:03:00,
2013-07-09 09:08:00,80.8,67.9,30.03,NE,43,3.5,0.0,65,0.00,CLR,CLR,0.00,WeatherDisplay:10.36,2013-07-09 14:08:00,
2013-07-09 09:13:00,81.1,68.3,30.03,NE,42,4.9,0.0,65,0.00,CLR,CLR,0.00,WeatherDisplay:10.36,2013-07-09 14:13:00,
2013-07-09 09:18:00,81.5,68.6,30.00,NE,40,3.1,0.0,65,0.00,CLR,CLR,0.00,WeatherDisplay:10.36,2013-07-09 14:18:00,
2013-07-09 09:23:00,81.9,68.5,30.00,NE,41,0.0,0.0,64,0.00,CLR,CLR,0.00,WeatherDisplay:10.36,2013-07-09 14:23:00,
2013-07-09 09:28:00,82.2,68.4,30.00,NE,41,6.9,6.9,63,0.00,CLR,CLR,0.00,WeatherDisplay:10.36,2013-07-09 14:28:00,
2013-07-09 09:33:00,82.4,68.5,30.00,NE,41,4.6,4.6,63,0.00,CLR,CLR,0.00,WeatherDisplay:10.36,2013-07-09 14:33:00,
2013-07-09 09:38:00,82.6,68.2,30.00,NE,41,6.3,6.3,62,0.00,CLR,CLR,0.00,WeatherDisplay:10.36,2013-07-09 14:38:00,
2013-07-09 09:43:00,82.8,67.9,30.00,NE,43,4.6,4.6,61,0.00,CLR,CLR,0.00,WeatherDisplay:10.36,2013-07-09 14:43:00,
2013-07-09 09:44:00,82.8,67.9,30.00,NE,41,6.9,6.9,61,0.00,CLR,CLR,0.00,WeatherDisplay:10.36,2013-07-09 14:44:00,
2013-07-09 09:49:00,83.3,68.0,30.00,NE,42,4.6,4.6,60,0.00,CLR,CLR,0.00,WeatherDisplay:10.36,2013-07-09 14:49:00,
2013-07-09 09:54:00,83.8,68.0,30.00,NE,39,6.9,6.9,59,0.00,CLR,CLR,0.00,WeatherDisplay:10.36,2013-07-09 14:54:00,
2013-07-09 09:59:00,84.6,67.1,30.00,NE,42,4.0,4.0,56,0.00,CLR,CLR,0.00,WeatherDisplay:10.36,2013-07-09 14:59:00,
2013-07-09 10:04:00,85.1,66.6,30.00,NE,36,6.3,6.3,54,0.00,CLR,CLR,0.00,WeatherDisplay:10.36,2013-07-09 15:04:00,
2013-07-09 10:09:00,85.6,66.5,30.00,NE,43,5.8,5.8,53,0.00,CLR,CLR,0.00,WeatherDisplay:10.36,2013-07-09 15:09:00,
2013-07-09 10:14:00,86.4,66.1,30.00,NE,43,4.6,4.6,51,0.00,CLR,CLR,0.00,WeatherDisplay:10.36,2013-07-09 15:14:00,
2013-07-09 10:19:00,86.9,65.4,30.00,NE,41,9.2,9.2,49,0.00,CLR,CLR,0.00,WeatherDisplay:10.36,2013-07-09 15:19:00,
2013-07-09 10:24:00,87.3,65.2,30.00,NE,41,4.9,4.9,48,0.00,CLR,CLR,0.00,WeatherDisplay:10.36,2013-07-09 15:24:00,
2013-07-09 10:29:00,87.6,64.9,30.00,NE,43,7.4,7.4,47,0.00,CLR,CLR,0.00,WeatherDisplay:10.36,2013-07-09 15:29:00,
2013-07-09 10:34:00,87.8,65.1,30.00,NE,43,5.8,5.8,47,0.00,CLR,CLR,0.00,WeatherDisplay:10.36,2013-07-09 15:34:00,
2013-07-09 10:39:00,88.2,65.4,30.00,NE,44,4.9,4.9,47,0.00,CLR,CLR,0.00,WeatherDisplay:10.36,2013-07-09 15:39:00,
2013-07-09 10:44:00,88.5,65.7,30.00,NE,38,6.3,6.3,47,0.00,CLR,CLR,0.00,WeatherDisplay:10.36,2013-07-09 15:44:00,
2013-07-09 10:49:00,88.9,64.8,30.00,NE,42,7.4,7.4,45,0.00,CLR,CLR,0.00,WeatherDisplay:10.36,2013-07-09 15:49:00,
2013-07-09 10:54:00,89.4,65.3,30.00,NE,41,4.6,4.6,45,0.00,CLR,CLR,0.00,WeatherDisplay:10.36,2013-07-09 15:54:00,
2013-07-09 10:59:00,89.8,65.0,30.00,NE,41,6.3,6.3,44,0.00,CLR,CLR,0.00,WeatherDisplay:10.36,2013-07-09 15:59:00,
2013-07-09 11:04:00,89.8,64.3,30.00,NE,43,4.0,4.0,43,0.00,CLR,CLR,0.00,WeatherDisplay:10.36,2013-07-09 16:04:00,
2013-07-09 11:09:00,90.0,64.5,30.00,NE,41,6.9,6.9,43,0.00,CLR,CLR,0.00,WeatherDisplay:10.36,2013-07-09 16:09:00,
2013-07-09 11:14:00,90.0,64.5,30.00,NE,41,6.9,6.9,43,0.00,CLR,CLR,0.00,WeatherDisplay:10.36,2013-07-09 16:14:00,
2013-07-09 11:19:00,90.0,64.5,30.00,NE,38,4.6,4.6,43,0.00,CLR,CLR,0.00,WeatherDisplay:10.36,2013-07-09 16:19:00,
2013-07-09 11:24:00,90.0,64.5,30.00,NE,39,6.9,6.9,43,0.00,CLR,CLR,0.00,WeatherDisplay:10.36,2013-07-09 16:24:00,
2013-07-09 11:29:00,90.0,64.5,30.00,NE,43,3.6,3.6,43,0.00,CLR,CLR,0.00,WeatherDisplay:10.36,2013-07-09 16:29:00,
2013-07-09 11:34:00,90.1,65.3,30.00,NE,41,5.8,5.8,44,0.00,CLR,CLR,0.00,WeatherDisplay:10.36,2013-07-09 16:34:00,
2013-07-09 11:39:00,90.5,64.9,30.00,NE,42,3.6,3.6,43,0.00,CLR,CLR,0.00,WeatherDisplay:10.36,2013-07-09 16:39:00,
2013-07-09 11:44:00,90.7,65.1,30.00,NE,44,4.9,0.0,43,0.00,CLR,CLR,0.00,WeatherDisplay:10.36,2013-07-09 16:44:00,
2013-07-09 11:49:00,90.9,65.3,30.00,NE,43,4.6,4.6,43,0.00,CLR,CLR,0.00,WeatherDisplay:10.36,2013-07-09 16:49:00,
2013-07-09 11:54:00,90.9,64.6,30.00,NE,42,4.9,0.0,42,0.00,CLR,CLR,0.00,WeatherDisplay:10.36,2013-07-09 16:54:00,
2013-07-09 11:59:00,91.0,64.8,30.00,NE,41,4.6,4.6,42,0.00,CLR,CLR,0.00,WeatherDisplay:10.36,2013-07-09 16:59:00,
2013-07-09 12:04:00,91.0,64.8,30.00,NE,42,5.4,5.4,42,0.00,CLR,CLR,0.00,WeatherDisplay:10.36,2013-07-09 17:04:00,
2013-07-09 12:09:00,91.2,64.9,30.00,NE,43,4.6,4.6,42,0.00,CLR,CLR,0.00,WeatherDisplay:10.36,2013-07-09 17:09:00,
2013-07-09 12:14:00,91.0,64.1,30.00,NE,41,6.9,6.9,41,0.00,CLR,CLR,0.00,WeatherDisplay:10.36,2013-07-09 17:14:00,
2013-07-09 12:19:00,90.9,63.9,30.00,NE,42,5.8,5.8,41,0.00,CLR,CLR,0.00,WeatherDisplay:10.36,2013-07-09 17:19:00,
2013-07-09 12:24:00,90.9,63.9,30.00,NE,40,0.0,0.0,41,0.00,CLR,CLR,0.00,WeatherDisplay:10.36,2013-07-09 17:24:00,
2013-07-09 12:29:00,90.9,63.9,30.00,NE,40,8.3,8.3,41,0.00,CLR,CLR,0.00,WeatherDisplay:10.36,2013-07-09 17:29:00,
2013-07-09 12:34:00,90.7,63.7,30.00,NE,40,7.4,7.4,41,0.00,CLR,CLR,0.00,WeatherDisplay:10.36,2013-07-09 17:34:00,
2013-07-09 12:39:00,90.7,64.4,30.00,NE,43,3.5,0.0,42,0.00,CLR,CLR,0.00,WeatherDisplay:10.36,2013-07-09 17:39:00,
2013-07-09 12:44:00,90.9,64.6,30.00,NE,39,3.6,0.0,42,0.00,CLR,CLR,0.00,WeatherDisplay:10.36,2013-07-09 17:44:00,
2013-07-09 12:49:00,91.2,64.9,30.00,NE,43,4.0,4.0,42,0.00,CLR,CLR,0.00,WeatherDisplay:10.36,2013-07-09 17:49:00,
2013-07-09 12:54:00,91.2,64.2,30.00,NE,40,6.9,6.9,41,0.00,CLR,CLR,0.00,WeatherDisplay:10.36,2013-07-09 17:54:00,
2013-07-09 12:59:00,91.2,64.2,30.00,NE,43,4.9,4.9,41,0.00,CLR,CLR,0.00,WeatherDisplay:10.36,2013-07-09 17:59:00,
2013-07-09 13:04:00,91.6,64.6,30.00,NE,42,6.9,6.9,41,0.00,CLR,CLR,0.00,WeatherDisplay:10.36,2013-07-09 18:04:00,
2013-07-09 13:09:00,91.8,64.0,30.00,NE,42,5.8,5.8,40,0.00,CLR,CLR,0.00,WeatherDisplay:10.36,2013-07-09 18:09:00,
2013-07-09 13:14:00,92.1,63.6,30.00,NE,43,4.9,0.0,39,0.00,CLR,CLR,0.00,WeatherDisplay:10.36,2013-07-09 18:14:00,
2013-07-09 13:19:00,92.3,63.8,29.97,NE,43,5.8,5.8,39,0.00,CLR,CLR,0.00,WeatherDisplay:10.36,2013-07-09 18:19:00,
2013-07-09 13:24:00,92.5,63.2,29.97,NE,43,5.8,5.8,38,0.00,CLR,CLR,0.00,WeatherDisplay:10.36,2013-07-09 18:24:00,
2013-07-09 13:29:00,92.7,63.3,29.97,NE,41,4.6,4.6,38,0.00,CLR,CLR,0.00,WeatherDisplay:10.36,2013-07-09 18:29:00,
2013-07-09 13:34:00,93.0,63.7,29.97,NE,39,6.9,6.9,38,0.00,CLR,CLR,0.00,WeatherDisplay:10.36,2013-07-09 18:34:00,
2013-07-09 13:39:00,93.2,64.6,29.97,NE,43,5.8,5.8,39,0.00,CLR,CLR,0.00,WeatherDisplay:10.36,2013-07-09 18:39:00,
2013-07-09 13:44:00,93.6,64.1,29.97,NE,42,8.3,8.3,38,0.00,CLR,CLR,0.00,WeatherDisplay:10.36,2013-07-09 18:44:00,
2013-07-09 13:49:00,93.7,64.3,29.97,NE,39,6.9,6.9,38,0.00,CLR,CLR,0.00,WeatherDisplay:10.36,2013-07-09 18:49:00,
2013-07-09 13:54:00,94.1,64.6,29.97,NE,42,8.1,8.1,38,0.00,CLR,CLR,0.00,WeatherDisplay:10.36,2013-07-09 18:54:00,
2013-07-09 13:59:00,94.1,63.9,29.97,NE,43,6.9,6.9,37,0.00,CLR,CLR,0.00,WeatherDisplay:10.36,2013-07-09 18:59:00,
2013-07-09 14:04:00,93.7,63.5,29.94,NE,43,6.9,6.9,37,0.00,CLR,CLR,0.00,WeatherDisplay:10.36,2013-07-09 19:04:00,
2013-07-09 14:09:00,93.4,63.2,29.94,NE,41,7.4,7.4,37,0.00,CLR,CLR,0.00,WeatherDisplay:10.36,2013-07-09 19:09:00,
2013-07-09 14:14:00,93.4,63.2,29.94,NE,38,6.3,6.3,37,0.00,CLR,CLR,0.00,WeatherDisplay:10.36,2013-07-09 19:14:00,
2013-07-09 14:19:00,93.6,63.4,29.94,NE,39,9.2,9.2,37,0.00,CLR,CLR,0.00,WeatherDisplay:10.36,2013-07-09 19:19:00,
2013-07-09 14:24:00,93.4,63.2,29.94,NE,39,4.0,4.0,37,0.00,CLR,CLR,0.00,WeatherDisplay:10.36,2013-07-09 19:24:00,
2013-07-09 14:29:00,93.2,63.1,29.94,NE,40,4.6,4.6,37,0.00,CLR,CLR,0.00,WeatherDisplay:10.36,2013-07-09 19:29:00,
2013-07-09 14:34:00,92.8,63.5,29.94,NE,39,3.1,0.0,38,0.00,CLR,CLR,0.00,WeatherDisplay:10.36,2013-07-09 19:34:00,
2013-07-09 14:39:00,92.8,63.5,29.94,NE,42,4.9,4.9,38,0.00,CLR,CLR,0.00,WeatherDisplay:10.36,2013-07-09 19:39:00,
2013-07-09 14:44:00,92.8,64.2,29.94,NE,42,6.3,6.3,39,0.00,CLR,CLR,0.00,WeatherDisplay:10.36,2013-07-09 19:44:00,
2013-07-09 14:49:00,93.0,64.4,29.94,NE,39,6.3,6.3,39,0.00,CLR,CLR,0.00,WeatherDisplay:10.36,2013-07-09 19:49:00,
2013-07-09 14:54:00,93.2,64.6,29.94,NE,37,6.3,6.3,39,0.00,CLR,CLR,0.00,WeatherDisplay:10.36,2013-07-09 19:54:00,
2013-07-09 14:59:00,93.4,64.7,29.94,NE,41,6.9,6.9,39,0.00,CLR,CLR,0.00,WeatherDisplay:10.36,2013-07-09 19:59:00,
2013-07-09 15:04:00,93.6,64.1,29.94,NE,40,7.4,7.4,38,0.00,CLR,CLR,0.00,WeatherDisplay:10.36,2013-07-09 20:04:00,
2013-07-09 15:09:00,93.6,64.1,29.94,NE,43,8.1,8.1,38,0.00,CLR,CLR,0.00,WeatherDisplay:10.36,2013-07-09 20:09:00,
2013-07-09 15:14:00,93.9,62.1,29.94,NE,36,8.1,8.1,35,0.00,CLR,CLR,0.00,WeatherDisplay:10.36,2013-07-09 20:14:00,
2013-07-09 15:19:00,94.1,62.3,29.94,NE,41,4.9,4.9,35,0.00,CLR,CLR,0.00,WeatherDisplay:10.36,2013-07-09 20:19:00,
2013-07-09 15:24:00,94.3,62.4,29.94,NNE,33,4.0,4.0,35,0.00,CLR,CLR,0.00,WeatherDisplay:10.36,2013-07-09 20:24:00,
2013-07-09 15:29:00,94.5,61.8,29.94,NE,41,6.3,6.3,34,0.00,CLR,CLR,0.00,WeatherDisplay:10.36,2013-07-09 20:29:00,
2013-07-09 15:34:00,94.6,61.1,29.94,NE,42,5.8,5.8,33,0.00,CLR,CLR,0.00,WeatherDisplay:10.36,2013-07-09 20:34:00,
2013-07-09 15:39:00,94.8,61.2,29.94,NE,44,5.8,5.8,33,0.00,CLR,CLR,0.00,WeatherDisplay:10.36,2013-07-09 20:39:00,
2013-07-09 15:44:00,95.0,60.5,29.94,NE,40,5.8,5.8,32,0.00,CLR,CLR,0.00,WeatherDisplay:10.36,2013-07-09 20:44:00,
2013-07-09 15:49:00,94.8,60.4,29.91,NE,43,4.6,4.6,32,0.00,CLR,CLR,0.00,WeatherDisplay:10.36,2013-07-09 20:49:00,
2013-07-09 15:54:00,94.8,59.5,29.91,NE,36,10.4,10.4,31,0.00,CLR,CLR,0.00,WeatherDisplay:10.36,2013-07-09 20:54:00,
2013-07-09 15:59:00,94.5,59.2,29.91,NE,41,7.4,7.4,31,0.00,CLR,CLR,0.00,WeatherDisplay:10.36,2013-07-09 20:59:00,
2013-07-09 16:04:00,94.3,59.0,29.91,NE,41,5.8,5.8,31,0.00,CLR,CLR,0.00,WeatherDisplay:10.36,2013-07-09 21:04:00,
2013-07-09 16:09:00,94.3,59.9,29.91,NE,42,7.4,7.4,32,0.00,CLR,CLR,0.00,WeatherDisplay:10.36,2013-07-09 21:09:00,
2013-07-09 16:14:00,94.3,59.9,29.91,NNE,33,10.4,10.4,32,0.00,CLR,CLR,0.00,WeatherDisplay:10.36,2013-07-09 21:14:00,
2013-07-09 16:19:00,94.6,58.4,29.91,NE,41,9.2,9.2,30,0.00,CLR,CLR,0.00,WeatherDisplay:10.36,2013-07-09 21:19:00,
2013-07-09 16:24:00,94.6,59.3,29.91,NE,38,6.7,6.7,31,0.00,CLR,CLR,0.00,WeatherDisplay:10.36,2013-07-09 21:24:00,
2013-07-09 16:29:00,94.6,59.3,29.91,NE,35,8.3,8.3,31,0.00,CLR,CLR,0.00,WeatherDisplay:10.36,2013-07-09 21:29:00,
2013-07-09 17:02:00,93.4,61.6,29.88,NE,39,9.2,9.2,35,0.00,CLR,CLR,0.00,WeatherDisplay:10.36,2013-07-09 22:02:00,
2013-07-09 17:04:00,93.4,61.6,29.88,NE,40,9.2,9.2,35,0.00,CLR,CLR,0.00,WeatherDisplay:10.36,2013-07-09 22:04:00,
2013-07-09 17:05:00,93.4,61.6,29.88,NE,37,5.8,5.8,35,0.00,CLR,CLR,0.00,WeatherDisplay:10.36,2013-07-09 22:05:00,
2013-07-09 17:06:00,93.4,61.6,29.88,NE,42,9.6,9.6,35,0.00,CLR,CLR,0.00,WeatherDisplay:10.36,2013-07-09 22:06:00,
2013-07-09 17:07:00,93.4,60.8,29.88,NE,40,9.2,9.2,34,0.00,CLR,CLR,0.00,WeatherDisplay:10.36,2013-07-09 22:07:00,
2013-07-09 17:08:00,93.4,60.8,29.88,NE,41,4.0,0.0,34,0.00,CLR,CLR,0.00,WeatherDisplay:10.36,2013-07-09 22:08:00,
2013-07-09 17:09:00,93.2,60.7,29.88,NE,41,4.6,4.6,34,0.00,CLR,CLR,0.00,WeatherDisplay:10.36,2013-07-09 22:09:00,
2013-07-09 17:10:00,93.2,60.7,29.88,NE,40,3.6,3.6,34,0.00,CLR,CLR,0.00,WeatherDisplay:10.36,2013-07-09 22:10:00,
2013-07-09 17:12:00,93.2,61.5,29.88,NE,38,4.6,4.6,35,0.00,CLR,CLR,0.00,WeatherDisplay:10.36,2013-07-09 22:12:00,
2013-07-09 17:13:00,93.2,61.5,29.88,NE,37,5.8,5.8,35,0.00,CLR,CLR,0.00,WeatherDisplay:10.36,2013-07-09 22:13:00,
2013-07-09 17:14:00,93.2,61.5,29.88,NE,42,5.4,0.0,35,0.00,CLR,CLR,0.00,WeatherDisplay:10.36,2013-07-09 22:14:00,
2013-07-09 17:15:00,93.2,61.5,29.88,NE,41,5.8,5.8,35,0.00,CLR,CLR,0.00,WeatherDisplay:10.36,2013-07-09 22:15:00,
2013-07-09 17:16:00,93.2,61.5,29.88,NE,39,4.6,4.6,35,0.00,CLR,CLR,0.00,WeatherDisplay:10.36,2013-07-09 22:16:00,
2013-07-09 17:17:00,93.0,61.3,29.88,NE,37,5.8,5.8,35,0.00,CLR,CLR,0.00,WeatherDisplay:10.36,2013-07-09 22:17:00,
2013-07-09 17:18:00,93.0,61.3,29.88,NE,41,5.8,5.8,35,0.00,CLR,CLR,0.00,WeatherDisplay:10.36,2013-07-09 22:18:00,
2013-07-09 17:20:00,93.0,61.3,29.88,NE,41,5.8,5.8,35,0.00,CLR,CLR,0.00,WeatherDisplay:10.36,2013-07-09 22:20:00,
2013-07-09 17:21:00,93.0,61.3,29.88,NE,39,5.8,5.8,35,0.00,CLR,CLR,0.00,WeatherDisplay:10.36,2013-07-09 22:21:00,
2013-07-09 17:22:00,93.0,61.3,29.88,NE,37,6.3,6.3,35,0.00,CLR,CLR,0.00,WeatherDisplay:10.36,2013-07-09 22:22:00,
2013-07-09 17:23:00,93.0,61.3,29.88,NE,41,5.4,5.4,35,0.00,CLR,CLR,0.00,WeatherDisplay:10.36,2013-07-09 22:23:00,
2013-07-09 17:24:00,93.0,61.3,29.88,NE,37,7.4,7.4,35,0.00,CLR,CLR,0.00,WeatherDisplay:10.36,2013-07-09 22:24:00,
2013-07-09 19:00:00,89.4,62.6,29.88,NE,42,5.8,5.8,41,0.00,CLR,CLR,0.00,WeatherDisplay:10.36,2013-07-10 00:00:00,
2013-07-09 19:01:00,89.2,62.5,29.88,NE,42,5.8,0.0,41,0.00,CLR,CLR,0.00,WeatherDisplay:10.36,2013-07-10 00:01:00,
2013-07-09 19:03:00,89.2,62.5,29.88,NE,41,4.9,4.9,41,0.00,CLR,CLR,0.00,WeatherDisplay:10.36,2013-07-10 00:03:00,
2013-07-09 19:04:00,89.2,62.5,29.88,NE,41,4.0,4.0,41,0.00,CLR,CLR,0.00,WeatherDisplay:10.36,2013-07-10 00:04:00,
2013-07-09 19:05:00,89.2,62.5,29.88,NE,40,0.0,2.7,41,0.00,CLR,CLR,0.00,WeatherDisplay:10.36,2013-07-10 00:05:00,
2013-07-09 19:06:00,89.1,62.3,29.88,NE,40,4.9,4.9,41,0.00,CLR,CLR,0.00,WeatherDisplay:10.36,2013-07-10 00:06:00,
2013-07-09 19:07:00,89.1,62.3,29.88,NE,42,4.9,4.9,41,0.00,CLR,CLR,0.00,WeatherDisplay:10.36,2013-07-10 00:07:00,
2013-07-09 19:08:00,89.1,62.3,29.88,NE,42,4.6,0.0,41,0.00,CLR,CLR,0.00,WeatherDisplay:10.36,2013-07-10 00:08:00,
2013-07-09 19:10:00,89.1,62.3,29.88,NE,41,0.0,0.0,41,0.00,CLR,CLR,0.00,WeatherDisplay:10.36,2013-07-10 00:10:00,
2013-07-09 19:11:00,88.9,62.1,29.88,NE,42,0.0,0.0,41,0.00,CLR,CLR,0.00,WeatherDisplay:10.36,2013-07-10 00:11:00,
2013-07-09 19:12:00,88.9,62.1,29.88,NE,41,4.6,0.0,41,0.00,CLR,CLR,0.00,WeatherDisplay:10.36,2013-07-10 00:12:00,
2013-07-09 19:13:00,88.7,62.0,29.88,NE,41,4.0,4.0,41,0.00,CLR,CLR,0.00,WeatherDisplay:10.36,2013-07-10 00:13:00,
2013-07-09 19:14:00,88.7,62.0,29.88,NE,42,4.5,4.5,41,0.00,CLR,CLR,0.00,WeatherDisplay:10.36,2013-07-10 00:14:00,
2013-07-09 19:15:00,88.7,62.7,29.88,NE,41,4.6,4.6,42,0.00,CLR,CLR,0.00,WeatherDisplay:10.36,2013-07-10 00:15:00,
2013-07-09 19:16:00,88.7,62.7,29.88,NE,41,3.6,3.6,42,0.00,CLR,CLR,0.00,WeatherDisplay:10.36,2013-07-10 00:16:00,
2013-07-09 19:18:00,88.5,62.5,29.88,NE,39,4.6,4.6,42,0.00,CLR,CLR,0.00,WeatherDisplay:10.36,2013-07-10 00:18:00,
2013-07-09 19:19:00,88.5,62.5,29.88,NE,39,4.9,4.9,42,0.00,CLR,CLR,0.00,WeatherDisplay:10.36,2013-07-10 00:19:00,
2013-07-09 19:20:00,88.5,62.5,29.88,NE,41,4.9,4.9,42,0.00,CLR,CLR,0.00,WeatherDisplay:10.36,2013-07-10 00:20:00,
2013-07-09 19:21:00,88.5,62.5,29.88,NE,39,4.6,4.6,42,0.00,CLR,CLR,0.00,WeatherDisplay:10.36,2013-07-10 00:21:00,
2013-07-09 19:22:00,88.3,62.3,29.88,NE,38,4.9,4.9,42,0.00,CLR,CLR,0.00,WeatherDisplay:10.36,2013-07-10 00:22:00,
2013-07-09 19:23:00,88.3,62.3,29.88,NE,42,3.6,0.0,42,0.00,CLR,CLR,0.00,WeatherDisplay:10.36,2013-07-10 00:23:00,
2013-07-09 19:24:00,88.3,62.3,29.88,NE,40,3.6,3.6,42,0.00,CLR,CLR,0.00,WeatherDisplay:10.36,2013-07-10 00:24:00,
2013-07-09 19:25:00,88.2,62.2,29.88,NE,40,3.6,3.6,42,0.00,CLR,CLR,0.00,WeatherDisplay:10.36,2013-07-10 00:25:00,
2013-07-09 19:27:00,88.2,62.2,29.88,NE,39,3.5,0.0,42,0.00,CLR,CLR,0.00,WeatherDisplay:10.36,2013-07-10 00:27:00,
2013-07-09 19:28:00,88.2,62.2,29.88,NE,41,3.1,0.0,42,0.00,CLR,CLR,0.00,WeatherDisplay:10.36,2013-07-10 00:28:00,
2013-07-09 19:29:00,88.2,62.2,29.88,NE,41,4.0,4.0,42,0.00,CLR,CLR,0.00,WeatherDisplay:10.36,2013-07-10 00:29:00,
2013-07-09 19:30:00,88.2,62.2,29.88,NE,41,2.3,0.0,42,0.00,CLR,CLR,0.00,WeatherDisplay:10.36,2013-07-10 00:30:00,
2013-07-09 19:31:00,88.0,62.0,29.88,NE,41,0.0,0.0,42,0.00,CLR,CLR,0.00,WeatherDisplay:10.36,2013-07-10 00:31:00,
2013-07-09 19:32:00,88.0,62.0,29.88,NE,41,0.0,0.0,42,0.00,CLR,CLR,0.00,WeatherDisplay:10.36,2013-07-10 00:32:00,
2013-07-09 19:34:00,88.0,62.0,29.88,NE,41,4.0,0.0,42,0.00,CLR,CLR,0.00,WeatherDisplay:10.36,2013-07-10 00:34:00,
2013-07-09 19:35:00,88.0,62.7,29.88,NE,41,0.0,0.0,43,0.00,CLR,CLR,0.00,WeatherDisplay:10.36,2013-07-10 00:35:00,
2013-07-09 19:36:00,87.8,62.5,29.88,NE,42,0.0,0.0,43,0.00,CLR,CLR,0.00,WeatherDisplay:10.36,2013-07-10 00:36:00,
2013-07-09 19:37:00,87.8,62.5,29.88,NE,42,0.0,0.0,43,0.00,CLR,CLR,0.00,WeatherDisplay:10.36,2013-07-10 00:37:00,
2013-07-09 19:38:00,87.8,62.5,29.88,NE,41,0.0,0.0,43,0.00,CLR,CLR,0.00,WeatherDisplay:10.36,2013-07-10 00:38:00,
2013-07-09 19:39:00,87.8,62.5,29.88,NE,42,0.0,0.0,43,0.00,CLR,CLR,0.00,WeatherDisplay:10.36,2013-07-10 00:39:00,
2013-07-09 19:40:00,87.6,62.4,29.88,NE,41,0.0,0.0,43,0.00,CLR,CLR,0.00,WeatherDisplay:10.36,2013-07-10 00:40:00,
2013-07-09 19:42:00,87.6,62.4,29.88,NE,42,0.0,0.0,43,0.00,CLR,CLR,0.00,WeatherDisplay:10.36,2013-07-10 00:42:00,
2013-07-09 19:43:00,87.6,62.4,29.88,NE,41,0.0,0.0,43,0.00,CLR,CLR,0.00,WeatherDisplay:10.36,2013-07-10 00:43:00,
2013-07-09 19:44:00,87.6,62.4,29.88,NE,41,0.0,0.0,43,0.00,CLR,CLR,0.00,WeatherDisplay:10.36,2013-07-10 00:44:00,
2013-07-09 19:45:00,87.6,62.4,29.88,NE,40,0.0,0.0,43,0.00,CLR,CLR,0.00,WeatherDisplay:10.36,2013-07-10 00:45:00,
2013-07-09 19:46:00,87.6,62.4,29.88,NE,41,0.0,0.0,43,0.00,CLR,CLR,0.00,WeatherDisplay:10.36,2013-07-10 00:46:00,
2013-07-09 19:47:00,87.6,62.4,29.88,NE,41,0.0,0.0,43,0.00,CLR,CLR,0.00,WeatherDisplay:10.36,2013-07-10 00:47:00,
2013-07-09 19:49:00,87.4,62.2,29.88,NE,41,0.0,0.0,43,0.00,CLR,CLR,0.00,WeatherDisplay:10.36,2013-07-10 00:49:00,
2013-07-09 19:50:00,87.4,62.2,29.88,NE,41,0.0,0.0,43,0.00,CLR,CLR,0.00,WeatherDisplay:10.36,2013-07-10 00:50:00,
2013-07-09 19:51:00,87.4,62.2,29.88,NE,41,0.0,0.0,43,0.00,CLR,CLR,0.00,WeatherDisplay:10.36,2013-07-10 00:51:00,
2013-07-09 19:52:00,87.4,62.2,29.88,NE,41,0.0,0.0,43,0.00,CLR,CLR,0.00,WeatherDisplay:10.36,2013-07-10 00:52:00,
2013-07-09 19:53:00,87.4,62.2,29.88,NE,40,0.0,0.0,43,0.00,CLR,CLR,0.00,WeatherDisplay:10.36,2013-07-10 00:53:00,
2013-07-09 19:54:00,87.3,62.0,29.88,NE,41,0.0,0.0,43,0.00,CLR,CLR,0.00,WeatherDisplay:10.36,2013-07-10 00:54:00,
2013-07-09 19:55:00,87.3,62.0,29.88,NE,41,0.0,0.0,43,0.00,CLR,CLR,0.00,WeatherDisplay:10.36,2013-07-10 00:55:00,
2013-07-09 19:57:00,87.3,62.0,29.88,NE,41,3.1,0.0,43,0.00,CLR,CLR,0.00,WeatherDisplay:10.36,2013-07-10 00:57:00,
2013-07-09 19:58:00,87.3,62.0,29.88,NE,41,3.6,3.6,43,0.00,CLR,CLR,0.00,WeatherDisplay:10.36,2013-07-10 00:58:00,
2013-07-09 19:59:00,87.1,62.5,29.88,NE,41,0.0,0.0,44,0.00,CLR,CLR,0.00,WeatherDisplay:10.36,2013-07-10 00:59:00,
2013-07-09 20:00:00,87.1,62.5,29.88,NE,41,0.0,0.0,44,0.00,CLR,CLR,0.00,WeatherDisplay:10.36,2013-07-10 01:00:00,
2013-07-09 20:01:00,87.1,62.5,29.88,NE,42,3.1,0.0,44,0.00,CLR,CLR,0.00,WeatherDisplay:10.36,2013-07-10 01:01:00,
2013-07-09 20:02:00,87.1,62.5,29.88,NE,41,3.6,3.6,44,0.00,CLR,CLR,0.00,WeatherDisplay:10.36,2013-07-10 01:02:00,
2013-07-09 20:04:00,87.1,62.5,29.88,NE,41,3.5,0.0,44,0.00,CLR,CLR,0.00,WeatherDisplay:10.36,2013-07-10 01:04:00,
2013-07-09 20:05:00,87.1,62.5,29.88,NE,41,3.5,0.0,44,0.00,CLR,CLR,0.00,WeatherDisplay:10.36,2013-07-10 01:05:00,
2013-07-09 20:06:00,87.1,62.5,29.88,NE,41,3.5,0.0,44,0.00,CLR,CLR,0.00,WeatherDisplay:10.36,2013-07-10 01:06:00,
2013-07-09 20:07:00,87.1,62.5,29.88,NE,41,3.5,0.0,44,0.00,CLR,CLR,0.00,WeatherDisplay:10.36,2013-07-10 01:07:00,
2013-07-09 20:08:00,87.1,62.5,29.88,NE,41,3.5,0.0,44,0.00,CLR,CLR,0.00,WeatherDisplay:10.36,2013-07-10 01:08:00,
2013-07-09 20:09:00,87.1,62.5,29.88,NE,41,2.3,0.0,44,0.00,CLR,CLR,0.00,WeatherDisplay:10.36,2013-07-10 01:09:00,
2013-07-09 20:10:00,86.9,62.4,29.88,NE,41,0.0,0.0,44,0.00,CLR,CLR,0.00,WeatherDisplay:10.36,2013-07-10 01:10:00,
2013-07-09 20:12:00,86.9,62.4,29.88,NE,41,0.0,0.0,44,0.00,CLR,CLR,0.00,WeatherDisplay:10.36,2013-07-10 01:12:00,
2013-07-09 20:13:00,86.9,62.4,29.88,NE,42,0.0,0.0,44,0.00,CLR,CLR,0.00,WeatherDisplay:10.36,2013-07-10 01:13:00,
2013-07-09 20:14:00,86.9,63.0,29.88,NE,41,0.0,0.0,45,0.00,CLR,CLR,0.00,WeatherDisplay:10.36,2013-07-10 01:14:00,
2013-07-09 20:15:00,86.9,63.0,29.88,NE,41,0.0,0.0,45,0.00,CLR,CLR,0.00,WeatherDisplay:10.36,2013-07-10 01:15:00,
2013-07-09 20:16:00,86.9,63.0,29.88,NE,41,0.0,0.0,45,0.00,CLR,CLR,0.00,WeatherDisplay:10.36,2013-07-10 01:16:00,
2013-07-09 20:17:00,86.9,63.0,29.88,NE,41,0.0,0.0,45,0.00,CLR,CLR,0.00,WeatherDisplay:10.36,2013-07-10 01:17:00,
2013-07-09 20:18:00,86.7,62.8,29.88,NE,41,0.0,0.0,45,0.00,CLR,CLR,0.00,WeatherDisplay:10.36,2013-07-10 01:18:00,
2013-07-09 20:20:00,86.7,62.8,29.88,NE,42,0.0,0.0,45,0.00,CLR,CLR,0.00,WeatherDisplay:10.36,2013-07-10 01:20:00,
2013-07-09 20:21:00,86.7,62.8,29.88,NE,41,0.0,0.0,45,0.00,CLR,CLR,0.00,WeatherDisplay:10.36,2013-07-10 01:21:00,
2013-07-09 20:22:00,86.7,62.8,29.88,NE,41,0.0,0.0,45,0.00,CLR,CLR,0.00,WeatherDisplay:10.36,2013-07-10 01:22:00,
2013-07-09 20:23:00,86.7,62.8,29.88,NE,42,0.0,0.0,45,0.00,CLR,CLR,0.00,WeatherDisplay:10.36,2013-07-10 01:23:00,
2013-07-09 20:24:00,86.7,62.8,29.88,NE,41,0.0,0.0,45,0.00,CLR,CLR,0.00,WeatherDisplay:10.36,2013-07-10 01:24:00,
2013-07-09 20:25:00,86.7,62.8,29.91,NE,41,0.0,0.0,45,0.00,CLR,CLR,0.00,WeatherDisplay:10.36,2013-07-10 01:25:00,
2013-07-09 20:26:00,86.5,62.7,29.91,NE,41,3.6,0.0,45,0.00,CLR,CLR,0.00,WeatherDisplay:10.36,2013-07-10 01:26:00,
2013-07-09 20:28:00,86.5,62.7,29.91,NE,42,3.5,0.0,45,0.00,CLR,CLR,0.00,WeatherDisplay:10.36,2013-07-10 01:28:00,
2013-07-09 20:29:00,86.5,62.7,29.91,NE,41,0.0,0.0,45,0.00,CLR,CLR,0.00,WeatherDisplay:10.36,2013-07-10 01:29:00,
2013-07-09 20:30:00,86.5,62.7,29.91,NE,41,0.0,0.0,45,0.00,CLR,CLR,0.00,WeatherDisplay:10.36,2013-07-10 01:30:00,
2013-07-09 20:31:00,86.5,62.7,29.91,NE,41,0.0,0.0,45,0.00,CLR,CLR,0.00,WeatherDisplay:10.36,2013-07-10 01:31:00,
2013-07-09 20:32:00,86.4,62.5,29.91,NE,41,0.0,0.0,45,0.00,CLR,CLR,0.00,WeatherDisplay:10.36,2013-07-10 01:32:00,
2013-07-09 20:33:00,86.4,62.5,29.91,NE,41,0.0,0.0,45,0.00,CLR,CLR,0.00,WeatherDisplay:10.36,2013-07-10 01:33:00,
2013-07-09 20:35:00,86.4,62.5,29.91,NE,42,0.0,0.0,45,0.00,CLR,CLR,0.00,WeatherDisplay:10.36,2013-07-10 01:35:00,
2013-07-09 20:36:00,86.4,62.5,29.91,NE,41,0.0,0.0,45,0.00,CLR,CLR,0.00,WeatherDisplay:10.36,2013-07-10 01:36:00,
2013-07-09 20:37:00,86.4,63.1,29.91,NE,41,0.0,0.0,46,0.00,CLR,CLR,0.00,WeatherDisplay:10.36,2013-07-10 01:37:00,
2013-07-09 20:38:00,86.2,63.0,29.91,NE,41,0.0,0.0,46,0.00,CLR,CLR,0.00,WeatherDisplay:10.36,2013-07-10 01:38:00,
2013-07-09 20:39:00,86.2,63.0,29.91,NE,42,0.0,0.0,46,0.00,CLR,CLR,0.00,WeatherDisplay:10.36,2013-07-10 01:39:00,
2013-07-09 20:40:00,86.2,63.0,29.91,NE,41,0.0,0.0,46,0.00,CLR,CLR,0.00,WeatherDisplay:10.36,2013-07-10 01:40:00,
2013-07-09 20:41:00,86.2,63.0,29.91,NE,41,0.0,0.0,46,0.00,CLR,CLR,0.00,WeatherDisplay:10.36,2013-07-10 01:41:00,
2013-07-09 20:43:00,86.2,63.0,29.91,NE,41,0.0,0.0,46,0.00,CLR,CLR,0.00,WeatherDisplay:10.36,2013-07-10 01:43:00,
2013-07-09 20:44:00,86.2,63.0,29.91,NE,41,0.0,0.0,46,0.00,CLR,CLR,0.00,WeatherDisplay:10.36,2013-07-10 01:44:00,
2013-07-09 20:45:00,86.2,63.0,29.91,NE,41,0.0,0.0,46,0.00,CLR,CLR,0.00,WeatherDisplay:10.36,2013-07-10 01:45:00,
2013-07-09 20:46:00,86.0,62.8,29.91,NE,41,0.0,0.0,46,0.00,CLR,CLR,0.00,WeatherDisplay:10.36,2013-07-10 01:46:00,
2013-07-09 20:47:00,86.0,62.8,29.91,NE,41,0.0,0.0,46,0.00,CLR,CLR,0.00,WeatherDisplay:10.36,2013-07-10 01:47:00,
2013-07-09 20:48:00,86.0,62.8,29.91,NE,41,0.0,0.0,46,0.00,CLR,CLR,0.00,WeatherDisplay:10.36,2013-07-10 01:48:00,
2013-07-09 20:49:00,86.0,62.8,29.91,NE,42,0.0,0.0,46,0.00,CLR,CLR,0.00,WeatherDisplay:10.36,2013-07-10 01:49:00,
2013-07-09 20:51:00,86.0,62.8,29.91,NE,41,0.0,0.0,46,0.00,CLR,CLR,0.00,WeatherDisplay:10.36,2013-07-10 01:51:00,
2013-07-09 20:52:00,86.0,62.8,29.91,NE,41,0.0,0.0,46,0.00,CLR,CLR,0.00,WeatherDisplay:10.36,2013-07-10 01:52:00,
2013-07-09 20:53:00,85.8,62.6,29.91,NE,42,0.0,0.0,46,0.00,CLR,CLR,0.00,WeatherDisplay:10.36,2013-07-10 01:53:00,
2013-07-09 20:54:00,85.8,63.3,29.91,NE,42,0.0,0.0,47,0.00,CLR,CLR,0.00,WeatherDisplay:10.36,2013-07-10 01:54:00,
2013-07-09 20:55:00,85.8,63.3,29.91,NE,41,0.0,0.0,47,0.00,CLR,CLR,0.00,WeatherDisplay:10.36,2013-07-10 01:55:00,
2013-07-09 20:56:00,85.8,63.3,29.91,NE,41,0.0,0.0,47,0.00,CLR,CLR,0.00,WeatherDisplay:10.36,2013-07-10 01:56:00,
2013-07-09 20:58:00,85.8,63.3,29.91,NE,41,0.0,0.0,47,0.00,CLR,CLR,0.00,WeatherDisplay:10.36,2013-07-10 01:58:00,
2013-07-09 20:59:00,85.8,63.3,29.91,NE,42,0.0,0.0,47,0.00,CLR,CLR,0.00,WeatherDisplay:10.36,2013-07-10 01:59:00,
2013-07-09 21:00:00,85.6,63.1,29.91,NE,41,0.0,0.0,47,0.00,CLR,CLR,0.00,WeatherDisplay:10.36,2013-07-10 02:00:00,
2013-07-09 21:01:00,85.6,63.1,29.91,NE,42,0.0,0.0,47,0.00,CLR,CLR,0.00,WeatherDisplay:10.36,2013-07-10 02:01:00,
2013-07-09 21:02:00,85.6,63.1,29.91,NE,41,0.0,0.0,47,0.00,CLR,CLR,0.00,WeatherDisplay:10.36,2013-07-10 02:02:00,
2013-07-09 21:03:00,85.6,63.1,29.91,NE,41,0.0,0.0,47,0.00,CLR,CLR,0.00,WeatherDisplay:10.36,2013-07-10 02:03:00,
2013-07-09 21:05:00,85.6,63.1,29.91,NE,42,0.0,0.0,47,0.00,CLR,CLR,0.00,WeatherDisplay:10.36,2013-07-10 02:05:00,
2013-07-09 21:06:00,85.5,62.9,29.91,NE,39,2.7,0.0,47,0.00,CLR,CLR,0.00,WeatherDisplay:10.36,2013-07-10 02:06:00,
2013-07-09 21:07:00,85.5,62.9,29.91,NE,39,0.0,0.0,47,0.00,CLR,CLR,0.00,WeatherDisplay:10.36,2013-07-10 02:07:00,
2013-07-09 21:08:00,85.5,62.9,29.91,NE,41,0.0,0.0,47,0.00,CLR,CLR,0.00,WeatherDisplay:10.36,2013-07-10 02:08:00,
2013-07-09 21:09:00,85.5,62.9,29.91,NE,39,0.0,0.0,47,0.00,CLR,CLR,0.00,WeatherDisplay:10.36,2013-07-10 02:09:00,
2013-07-09 21:10:00,85.5,63.5,29.91,NE,40,0.0,0.0,48,0.00,CLR,CLR,0.00,WeatherDisplay:10.36,2013-07-10 02:10:00,
2013-07-09 21:11:00,85.5,63.5,29.91,NE,40,0.0,0.0,48,0.00,CLR,CLR,0.00,WeatherDisplay:10.36,2013-07-10 02:11:00,
2013-07-09 21:13:00,85.5,63.5,29.91,NE,40,0.0,0.0,48,0.00,CLR,CLR,0.00,WeatherDisplay:10.36,2013-07-10 02:13:00,
2013-07-09 21:14:00,85.3,63.4,29.91,NE,40,3.5,0.0,48,0.00,CLR,CLR,0.00,WeatherDisplay:10.36,2013-07-10 02:14:00,
2013-07-09 21:15:00,85.3,63.4,29.91,NE,41,4.5,0.0,48,0.00,CLR,CLR,0.00,WeatherDisplay:10.36,2013-07-10 02:15:00,
2013-07-09 21:16:00,85.3,63.4,29.91,NE,42,4.6,4.6,48,0.00,CLR,CLR,0.00,WeatherDisplay:10.36,2013-07-10 02:16:00,
2013-07-09 21:17:00,85.3,63.4,29.91,NE,41,3.5,0.0,48,0.00,CLR,CLR,0.00,WeatherDisplay:10.36,2013-07-10 02:17:00,
2013-07-09 21:18:00,85.3,63.4,29.91,NE,41,0.0,0.0,48,0.00,CLR,CLR,0.00,WeatherDisplay:10.36,2013-07-10 02:18:00,
2013-07-09 21:20:00,85.3,64.0,29.91,NE,42,4.5,0.0,49,0.00,CLR,CLR,0.00,WeatherDisplay:10.36,2013-07-10 02:20:00,
2013-07-09 21:21:00,85.3,64.0,29.91,NE,40,4.6,0.0,49,0.00,CLR,CLR,0.00,WeatherDisplay:10.36,2013-07-10 02:21:00,
2013-07-09 21:22:00,85.3,64.0,29.91,NE,40,3.6,3.6,49,0.00,CLR,CLR,0.00,WeatherDisplay:10.36,2013-07-10 02:22:00,
2013-07-09 21:23:00,85.3,64.0,29.91,NE,40,4.6,4.6,49,0.00,CLR,CLR,0.00,WeatherDisplay:10.36,2013-07-10 02:23:00,
2013-07-09 21:24:00,85.1,63.8,29.91,NE,42,4.9,4.9,49,0.00,CLR,CLR,0.00,WeatherDisplay:10.36,2013-07-10 02:24:00,
2013-07-09 21:25:00,85.1,64.4,29.91,NE,42,3.5,0.0,50,0.00,CLR,CLR,0.00,WeatherDisplay:10.36,2013-07-10 02:25:00,
2013-07-09 21:26:00,85.1,64.4,29.91,NE,42,0.0,0.0,50,0.00,CLR,CLR,0.00,WeatherDisplay:10.36,2013-07-10 02:26:00,
2013-07-09 21:28:00,85.1,64.4,29.91,NE,42,3.6,0.0,50,0.00,CLR,CLR,0.00,WeatherDisplay:10.36,2013-07-10 02:28:00,
2013-07-09 21:29:00,85.1,64.4,29.91,NE,42,0.0,0.0,50,0.00,CLR,CLR,0.00,WeatherDisplay:10.36,2013-07-10 02:29:00,
2013-07-09 21:30:00,85.1,64.4,29.91,NE,41,3.6,0.0,50,0.00,CLR,CLR,0.00,WeatherDisplay:10.36,2013-07-10 02:30:00,
2013-07-09 21:31:00,85.1,64.4,29.91,NE,41,3.6,3.6,50,0.00,CLR,CLR,0.00,WeatherDisplay:10.36,2013-07-10 02:31:00,
2013-07-09 21:32:00,85.1,64.4,29.91,NE,42,3.6,0.0,50,0.00,CLR,CLR,0.00,WeatherDisplay:10.36,2013-07-10 02:32:00,
2013-07-09 21:33:00,85.1,64.4,29.91,NE,42,4.9,4.9,50,0.00,CLR,CLR,0.00,WeatherDisplay:10.36,2013-07-10 02:33:00,
2013-07-09 21:35:00,85.1,64.9,29.91,NE,42,4.6,0.0,51,0.00,CLR,CLR,0.00,WeatherDisplay:10.36,2013-07-10 02:35:00,
2013-07-09 21:36:00,85.1,64.9,29.91,NE,41,4.0,0.0,51,0.00,CLR,CLR,0.00,WeatherDisplay:10.36,2013-07-10 02:36:00,
2013-07-09 21:37:00,85.1,64.9,29.91,NE,42,4.6,0.0,51,0.00,CLR,CLR,0.00,WeatherDisplay:10.36,2013-07-10 02:37:00,
2013-07-09 21:38:00,85.1,64.9,29.91,NE,42,3.5,3.5,51,0.00,CLR,CLR,0.00,WeatherDisplay:10.36,2013-07-10 02:38:00,
2013-07-09 21:39:00,85.1,64.9,29.91,NE,42,0.0,0.0,51,0.00,CLR,CLR,0.00,WeatherDisplay:10.36,2013-07-10 02:39:00,
2013-07-09 21:40:00,85.1,64.9,29.91,NE,42,0.0,0.0,51,0.00,CLR,CLR,0.00,WeatherDisplay:10.36,2013-07-10 02:40:00,
2013-07-09 21:41:00,85.1,64.9,29.91,NE,42,0.0,0.0,51,0.00,CLR,CLR,0.00,WeatherDisplay:10.36,2013-07-10 02:41:00,
2013-07-09 21:43:00,85.1,64.9,29.91,NE,42,0.0,0.0,51,0.00,CLR,CLR,0.00,WeatherDisplay:10.36,2013-07-10 02:43:00,
2013-07-09 21:44:00,85.1,64.9,29.91,NE,41,4.5,0.0,51,0.00,CLR,CLR,0.00,WeatherDisplay:10.36,2013-07-10 02:44:00,
2013-07-09 21:45:00,85.1,64.9,29.91,NE,41,4.6,4.6,51,0.00,CLR,CLR,0.00,WeatherDisplay:10.36,2013-07-10 02:45:00,
2013-07-09 21:46:00,85.1,64.9,29.91,NE,41,3.1,0.0,51,0.00,CLR,CLR,0.00,WeatherDisplay:10.36,2013-07-10 02:46:00,
2013-07-09 21:47:00,84.9,64.8,29.91,NE,41,3.6,3.6,51,0.00,CLR,CLR,0.00,WeatherDisplay:10.36,2013-07-10 02:47:00,
2013-07-09 21:48:00,84.9,64.8,29.91,NE,39,4.0,4.0,51,0.00,CLR,CLR,0.00,WeatherDisplay:10.36,2013-07-10 02:48:00,
2013-07-09 21:49:00,84.9,64.8,29.91,NE,42,4.0,4.0,51,0.00,CLR,CLR,0.00,WeatherDisplay:10.36,2013-07-10 02:49:00,
2013-07-09 21:51:00,84.9,64.8,29.91,NE,41,4.6,4.6,51,0.00,CLR,CLR,0.00,WeatherDisplay:10.36,2013-07-10 02:51:00,
2013-07-09 21:52:00,84.9,65.3,29.91,NE,39,3.6,3.6,52,0.00,CLR,CLR,0.00,WeatherDisplay:10.36,2013-07-10 02:52:00,
2013-07-09 21:53:00,84.9,65.3,29.91,NE,42,4.9,4.9,52,0.00,CLR,CLR,0.00,WeatherDisplay:10.36,2013-07-10 02:53:00,
2013-07-09 21:54:00,84.9,65.3,29.91,NE,38,4.6,0.0,52,0.00,CLR,CLR,0.00,WeatherDisplay:10.36,2013-07-10 02:54:00,
2013-07-09 21:55:00,84.9,65.3,29.91,NE,42,4.0,0.0,52,0.00,CLR,CLR,0.00,WeatherDisplay:10.36,2013-07-10 02:55:00,
2013-07-09 21:56:00,84.9,65.3,29.91,NE,42,3.5,0.0,52,0.00,CLR,CLR,0.00,WeatherDisplay:10.36,2013-07-10 02:56:00,
2013-07-09 21:58:00,84.9,65.3,29.91,NE,42,0.0,0.0,52,0.00,CLR,CLR,0.00,WeatherDisplay:10.36,2013-07-10 02:58:00,
2013-07-09 21:59:00,84.9,65.3,29.91,NE,42,0.0,0.0,52,0.00,CLR,CLR,0.00,WeatherDisplay:10.36,2013-07-10 02:59:00,
2013-07-09 22:00:00,84.9,65.3,29.91,NE,41,0.0,0.0,52,0.00,CLR,CLR,0.00,WeatherDisplay:10.36,2013-07-10 03:00:00,
2013-07-09 22:01:00,84.9,65.3,29.91,NE,42,4.6,4.6,52,0.00,CLR,CLR,0.00,WeatherDisplay:10.36,2013-07-10 03:01:00,
2013-07-09 22:02:00,84.9,65.3,29.91,NE,42,3.5,0.0,52,0.00,CLR,CLR,0.00,WeatherDisplay:10.36,2013-07-10 03:02:00,
2013-07-09 22:03:00,84.9,65.3,29.91,NE,41,0.0,0.0,52,0.00,CLR,CLR,0.00,WeatherDisplay:10.36,2013-07-10 03:03:00,
2013-07-09 22:05:00,84.7,65.2,29.91,NE,42,4.0,0.0,52,0.00,CLR,CLR,0.00,WeatherDisplay:10.36,2013-07-10 03:05:00,
2013-07-09 22:06:00,84.7,65.2,29.91,NE,42,4.6,4.6,52,0.00,CLR,CLR,0.00,WeatherDisplay:10.36,2013-07-10 03:06:00,
2013-07-09 22:07:00,84.7,65.2,29.91,NE,41,4.6,0.0,52,0.00,CLR,CLR,0.00,WeatherDisplay:10.36,2013-07-10 03:07:00,
2013-07-09 22:08:00,84.7,65.2,29.91,NE,42,4.9,4.9,52,0.00,CLR,CLR,0.00,WeatherDisplay:10.36,2013-07-10 03:08:00,
2013-07-09 22:09:00,84.7,65.2,29.91,NE,41,3.6,0.0,52,0.00,CLR,CLR,0.00,WeatherDisplay:10.36,2013-07-10 03:09:00,
2013-07-09 22:10:00,84.7,65.2,29.91,NE,41,4.6,4.6,52,0.00,CLR,CLR,0.00,WeatherDisplay:10.36,2013-07-10 03:10:00,
2013-07-09 22:11:00,84.7,65.2,29.91,NE,41,4.9,4.9,52,0.00,CLR,CLR,0.00,WeatherDisplay:10.36,2013-07-10 03:11:00,
2013-07-09 22:13:00,84.7,65.2,29.91,NE,41,4.9,4.9,52,0.00,CLR,CLR,0.00,WeatherDisplay:10.36,2013-07-10 03:13:00,
2013-07-09 22:14:00,84.7,65.2,29.91,NE,41,4.5,4.5,52,0.00,CLR,CLR,0.00,WeatherDisplay:10.36,2013-07-10 03:14:00,
2013-07-09 22:15:00,84.7,65.2,29.91,NE,39,5.8,5.8,52,0.00,CLR,CLR,0.00,WeatherDisplay:10.36,2013-07-10 03:15:00,
2013-07-09 22:16:00,84.7,65.7,29.91,NE,42,5.8,5.8,53,0.00,CLR,CLR,0.00,WeatherDisplay:10.36,2013-07-10 03:16:00,
2013-07-09 22:17:00,84.6,65.0,29.91,NE,41,5.8,5.8,52,0.00,CLR,CLR,0.00,WeatherDisplay:10.36,2013-07-10 03:17:00,
2013-07-09 22:18:00,84.6,65.0,29.91,NE,41,5.4,5.4,52,0.00,CLR,CLR,0.00,WeatherDisplay:10.36,2013-07-10 03:18:00,
2013-07-09 22:19:00,84.6,65.0,29.91,NE,41,5.8,5.8,52,0.00,CLR,CLR,0.00,WeatherDisplay:10.36,2013-07-10 03:19:00,
2013-07-09 22:21:00,84.6,65.5,29.91,NE,40,3.6,3.6,53,0.00,CLR,CLR,0.00,WeatherDisplay:10.36,2013-07-10 03:21:00,
2013-07-09 22:22:00,84.6,65.5,29.91,NE,41,3.5,3.5,53,0.00,CLR,CLR,0.00,WeatherDisplay:10.36,2013-07-10 03:22:00,
2013-07-09 22:23:00,84.6,65.5,29.91,NE,37,5.4,0.0,53,0.00,CLR,CLR,0.00,WeatherDisplay:10.36,2013-07-10 03:23:00,
2013-07-09 22:24:00,84.6,65.5,29.91,NE,37,5.8,0.0,53,0.00,CLR,CLR,0.00,WeatherDisplay:10.36,2013-07-10 03:24:00,
2013-07-09 22:25:00,84.6,65.5,29.91,NE,40,4.0,4.0,53,0.00,CLR,CLR,0.00,WeatherDisplay:10.36,2013-07-10 03:25:00,
2013-07-09 22:26:00,84.6,65.5,29.91,NE,38,5.4,5.4,53,0.00,CLR,CLR,0.00,WeatherDisplay:10.36,2013-07-10 03:26:00,
2013-07-09 22:28:00,84.6,65.5,29.91,NE,38,5.8,5.8,53,0.00,CLR,CLR,0.00,WeatherDisplay:10.36,2013-07-10 03:28:00,
2013-07-09 22:29:00,84.6,65.5,29.91,NE,38,4.0,4.0,53,0.00,CLR,CLR,0.00,WeatherDisplay:10.36,2013-07-10 03:29:00,
2013-07-09 22:30:00,84.4,65.4,29.91,NE,42,6.9,6.9,53,0.00,CLR,CLR,0.00,WeatherDisplay:10.36,2013-07-10 03:30:00,
2013-07-09 22:31:00,84.4,65.4,29.91,NE,41,4.9,4.9,53,0.00,CLR,CLR,0.00,WeatherDisplay:10.36,2013-07-10 03:31:00,
2013-07-09 22:32:00,84.4,65.4,29.91,NE,40,4.6,0.0,53,0.00,CLR,CLR,0.00,WeatherDisplay:10.36,2013-07-10 03:32:00,
2013-07-09 22:33:00,84.4,65.4,29.91,NE,42,3.6,3.6,53,0.00,CLR,CLR,0.00,WeatherDisplay:10.36,2013-07-10 03:33:00,
2013-07-09 22:34:00,84.4,65.4,29.91,NE,40,0.0,0.0,53,0.00,CLR,CLR,0.00,WeatherDisplay:10.36,2013-07-10 03:34:00,
2013-07-09 22:36:00,84.4,65.4,29.91,NE,42,4.0,0.0,53,0.00,CLR,CLR,0.00,WeatherDisplay:10.36,2013-07-10 03:36:00,
2013-07-09 22:37:00,84.4,65.4,29.91,NE,42,4.6,4.6,53,0.00,CLR,CLR,0.00,WeatherDisplay:10.36,2013-07-10 03:37:00,
2013-07-09 22:38:00,84.4,65.4,29.91,NE,42,3.5,3.5,53,0.00,CLR,CLR,0.00,WeatherDisplay:10.36,2013-07-10 03:38:00,
2013-07-09 22:39:00,84.4,65.4,29.91,NE,44,5.4,5.4,53,0.00,CLR,CLR,0.00,WeatherDisplay:10.36,2013-07-10 03:39:00,
2013-07-09 22:40:00,84.4,65.4,29.91,NE,38,5.8,5.8,53,0.00,CLR,CLR,0.00,WeatherDisplay:10.36,2013-07-10 03:40:00,
2013-07-09 22:41:00,84.4,65.4,29.91,NE,39,5.8,5.8,53,0.00,CLR,CLR,0.00,WeatherDisplay:10.36,2013-07-10 03:41:00,
2013-07-09 22:42:00,84.4,65.4,29.91,NE,42,4.6,4.6,53,0.00,CLR,CLR,0.00,WeatherDisplay:10.36,2013-07-10 03:42:00,
2013-07-09 22:44:00,84.4,65.4,29.91,NE,42,4.6,0.0,53,0.00,CLR,CLR,0.00,WeatherDisplay:10.36,2013-07-10 03:44:00,
2013-07-09 22:45:00,84.4,65.4,29.91,NE,40,4.9,0.0,53,0.00,CLR,CLR,0.00,WeatherDisplay:10.36,2013-07-10 03:45:00,
2013-07-09 22:46:00,84.4,65.9,29.91,NE,41,4.6,4.6,54,0.00,CLR,CLR,0.00,WeatherDisplay:10.36,2013-07-10 03:46:00,
2013-07-09 22:47:00,84.4,65.9,29.91,NE,41,3.5,0.0,54,0.00,CLR,CLR,0.00,WeatherDisplay:10.36,2013-07-10 03:47:00,
2013-07-09 22:48:00,84.4,65.9,29.91,NE,43,3.6,0.0,54,0.00,CLR,CLR,0.00,WeatherDisplay:10.36,2013-07-10 03:48:00,
2013-07-09 22:49:00,84.4,65.9,29.91,NE,42,6.3,6.3,54,0.00,CLR,CLR,0.00,WeatherDisplay:10.36,2013-07-10 03:49:00,
2013-07-09 22:50:00,84.4,65.9,29.91,NE,41,5.8,5.8,54,0.00,CLR,CLR,0.00,WeatherDisplay:10.36,2013-07-10 03:50:00,
2013-07-09 22:52:00,84.2,65.8,29.91,NE,40,4.6,0.0,54,0.00,CLR,CLR,0.00,WeatherDisplay:10.36,2013-07-10 03:52:00,
2013-07-09 22:53:00,84.2,65.8,29.91,NE,42,3.6,3.6,54,0.00,CLR,CLR,0.00,WeatherDisplay:10.36,2013-07-10 03:53:00,
2013-07-09 22:54:00,84.2,65.8,29.91,NE,37,4.6,4.6,54,0.00,CLR,CLR,0.00,WeatherDisplay:10.36,2013-07-10 03:54:00,
2013-07-09 22:55:00,84.2,65.8,29.91,NE,39,4.6,4.6,54,0.00,CLR,CLR,0.00,WeatherDisplay:10.36,2013-07-10 03:55:00,
2013-07-09 22:56:00,84.2,65.8,29.91,NE,41,4.6,4.6,54,0.00,CLR,CLR,0.00,WeatherDisplay:10.36,2013-07-10 03:56:00,
2013-07-09 22:57:00,84.2,65.8,29.91,NE,37,6.7,6.7,54,0.00,CLR,CLR,0.00,WeatherDisplay:10.36,2013-07-10 03:57:00,
2013-07-09 22:59:00,84.2,65.8,29.91,NE,39,6.9,6.9,54,0.00,CLR,CLR,0.00,WeatherDisplay:10.36,2013-07-10 03:59:00,
2013-07-09 23:00:00,84.2,65.8,29.91,NE,40,5.8,5.8,54,0.00,CLR,CLR,0.00,WeatherDisplay:10.36,2013-07-10 04:00:00,
2013-07-09 23:01:00,84.0,65.6,29.91,NE,39,4.6,4.6,54,0.00,CLR,CLR,0.00,WeatherDisplay:10.36,2013-07-10 04:01:00,
2013-07-09 23:02:00,84.0,66.1,29.91,NE,38,4.9,4.9,55,0.00,CLR,CLR,0.00,WeatherDisplay:10.36,2013-07-10 04:02:00,
2013-07-09 23:03:00,84.0,66.1,29.91,NE,38,3.5,0.0,55,0.00,CLR,CLR,0.00,WeatherDisplay:10.36,2013-07-10 04:03:00,
2013-07-09 23:04:00,84.0,66.1,29.91,NE,40,3.6,3.6,55,0.00,CLR,CLR,0.00,WeatherDisplay:10.36,2013-07-10 04:04:00,
2013-07-09 23:05:00,84.0,66.1,29.91,NE,41,4.5,0.0,55,0.00,CLR,CLR,0.00,WeatherDisplay:10.36,2013-07-10 04:05:00,
2013-07-09 23:07:00,84.0,66.1,29.91,NE,41,4.6,4.6,55,0.00,CLR,CLR,0.00,WeatherDisplay:10.36,2013-07-10 04:07:00,
2013-07-09 23:08:00,84.0,66.1,29.91,NE,42,4.6,0.0,55,0.00,CLR,CLR,0.00,WeatherDisplay:10.36,2013-07-10 04:08:00,
2013-07-09 23:09:00,84.0,66.1,29.91,NE,42,2.7,2.7,55,0.00,CLR,CLR,0.00,WeatherDisplay:10.36,2013-07-10 04:09:00,
2013-07-09 23:10:00,84.0,66.1,29.91,NE,40,6.3,6.3,55,0.00,CLR,CLR,0.00,WeatherDisplay:10.36,2013-07-10 04:10:00,
2013-07-09 23:11:00,83.8,65.9,29.91,NE,41,3.5,0.0,55,0.00,CLR,CLR,0.00,WeatherDisplay:10.36,2013-07-10 04:11:00,
2013-07-09 23:12:00,83.8,65.9,29.91,NE,41,3.6,3.6,55,0.00,CLR,CLR,0.00,WeatherDisplay:10.36,2013-07-10 04:12:00,
2013-07-09 23:14:00,83.8,65.9,29.91,NE,40,4.0,4.0,55,0.00,CLR,CLR,0.00,WeatherDisplay:10.36,2013-07-10 04:14:00,
2013-07-09 23:15:00,83.8,65.9,29.91,NE,41,6.3,0.0,55,0.00,CLR,CLR,0.00,WeatherDisplay:10.36,2013-07-10 04:15:00,
2013-07-09 23:16:00,83.8,65.9,29.91,NE,41,5.8,5.8,55,0.00,CLR,CLR,0.00,WeatherDisplay:10.36,2013-07-10 04:16:00,
2013-07-09 23:17:00,83.8,65.9,29.91,NE,41,4.0,4.0,55,0.00,CLR,CLR,0.00,WeatherDisplay:10.36,2013-07-10 04:17:00,
2013-07-09 23:18:00,83.8,65.9,29.91,NE,41,3.5,0.0,55,0.00,CLR,CLR,0.00,WeatherDisplay:10.36,2013-07-10 04:18:00,
2013-07-09 23:19:00,83.8,65.9,29.91,NE,42,4.5,0.0,55,0.00,CLR,CLR,0.00,WeatherDisplay:10.36,2013-07-10 04:19:00,
2013-07-09 23:20:00,83.8,65.9,29.91,NE,41,4.9,4.9,55,0.00,CLR,CLR,0.00,WeatherDisplay:10.36,2013-07-10 04:20:00,
2013-07-09 23:22:00,83.8,66.5,29.91,NE,39,4.6,4.6,56,0.00,CLR,CLR,0.00,WeatherDisplay:10.36,2013-07-10 04:22:00,
2013-07-09 23:23:00,83.7,66.3,29.91,NE,38,4.5,0.0,56,0.00,CLR,CLR,0.00,WeatherDisplay:10.36,2013-07-10 04:23:00,
2013-07-09 23:24:00,83.7,66.3,29.91,NE,41,4.6,4.6,56,0.00,CLR,CLR,0.00,WeatherDisplay:10.36,2013-07-10 04:24:00,
2013-07-09 23:25:00,83.7,66.3,29.91,NE,39,4.6,4.6,56,0.00,CLR,CLR,0.00,WeatherDisplay:10.36,2013-07-10 04:25:00,
2013-07-09 23:26:00,83.7,66.3,29.91,NE,39,4.6,4.6,56,0.00,CLR,CLR,0.00,WeatherDisplay:10.36,2013-07-10 04:26:00,
2013-07-09 23:27:00,83.7,66.3,29.91,NE,41,5.8,5.8,56,0.00,CLR,CLR,0.00,WeatherDisplay:10.36,2013-07-10 04:27:00,
2013-07-09 23:29:00,83.7,66.3,29.91,NE,41,6.7,6.7,56,0.00,CLR,CLR,0.00,WeatherDisplay:10.36,2013-07-10 04:29:00,
2013-07-09 23:30:00,83.7,66.3,29.91,NE,38,6.9,6.9,56,0.00,CLR,CLR,0.00,WeatherDisplay:10.36,2013-07-10 04:30:00,
2013-07-09 23:31:00,83.7,66.3,29.91,NE,42,5.8,5.8,56,0.00,CLR,CLR,0.00,WeatherDisplay:10.36,2013-07-10 04:31:00,
2013-07-09 23:32:00,83.7,66.3,29.91,NE,39,6.9,6.9,56,0.00,CLR,CLR,0.00,WeatherDisplay:10.36,2013-07-10 04:32:00,
2013-07-09 23:33:00,83.7,66.3,29.91,NE,40,5.8,5.8,56,0.00,CLR,CLR,0.00,WeatherDisplay:10.36,2013-07-10 04:33:00,
2013-07-09 23:34:00,83.7,66.8,29.91,NE,40,3.6,3.6,57,0.00,CLR,CLR,0.00,WeatherDisplay:10.36,2013-07-10 04:34:00,
2013-07-09 23:35:00,83.7,66.3,29.91,NE,40,3.1,0.0,56,0.00,CLR,CLR,0.00,WeatherDisplay:10.36,2013-07-10 04:35:00,
2013-07-09 23:37:00,83.7,66.3,29.91,NE,41,6.3,6.3,56,0.00,CLR,CLR,0.00,WeatherDisplay:10.36,2013-07-10 04:37:00,
2013-07-09 23:38:00,83.5,66.6,29.91,NE,38,6.3,6.3,57,0.00,CLR,CLR,0.00,WeatherDisplay:10.36,2013-07-10 04:38:00,
2013-07-09 23:39:00,83.5,66.6,29.91,NE,42,5.8,5.8,57,0.00,CLR,CLR,0.00,WeatherDisplay:10.36,2013-07-10 04:39:00,
2013-07-09 23:40:00,83.5,66.6,29.91,NE,42,4.0,4.0,57,0.00,CLR,CLR,0.00,WeatherDisplay:10.36,2013-07-10 04:40:00,
2013-07-09 23:41:00,83.5,66.6,29.91,NE,42,0.0,0.0,57,0.00,CLR,CLR,0.00,WeatherDisplay:10.36,2013-07-10 04:41:00,
2013-07-09 23:42:00,83.5,66.6,29.91,NE,39,4.9,4.9,57,0.00,CLR,CLR,0.00,WeatherDisplay:10.36,2013-07-10 04:42:00,
2013-07-09 23:43:00,83.5,66.6,29.91,NE,39,4.9,4.9,57,0.00,CLR,CLR,0.00,WeatherDisplay:10.36,2013-07-10 04:43:00,
2013-07-09 23:45:00,83.5,66.6,29.91,NE,39,4.6,4.6,57,0.00,CLR,CLR,0.00,WeatherDisplay:10.36,2013-07-10 04:45:00,
2013-07-09 23:46:00,83.5,66.6,29.91,NE,41,4.0,0.0,57,0.00,CLR,CLR,0.00,WeatherDisplay:10.36,2013-07-10 04:46:00,
2013-07-09 23:47:00,83.3,66.5,29.91,NE,41,3.5,3.5,57,0.00,CLR,CLR,0.00,WeatherDisplay:10.36,2013-07-10 04:47:00,
2013-07-09 23:48:00,83.3,66.5,29.91,NE,41,0.0,0.0,57,0.00,CLR,CLR,0.00,WeatherDisplay:10.36,2013-07-10 04:48:00,
2013-07-09 23:49:00,83.3,66.5,29.91,NE,41,0.0,0.0,57,0.00,CLR,CLR,0.00,WeatherDisplay:10.36,2013-07-10 04:49:00,
2013-07-09 23:50:00,83.3,66.5,29.91,NE,43,3.1,0.0,57,0.00,CLR,CLR,0.00,WeatherDisplay:10.36,2013-07-10 04:50:00,
2013-07-09 23:51:00,83.3,66.5,29.91,NE,41,4.9,4.9,57,0.00,CLR,CLR,0.00,WeatherDisplay:10.36,2013-07-10 04:51:00,
2013-07-09 23:53:00,83.3,67.0,29.91,NE,42,4.9,4.9,58,0.00,CLR,CLR,0.00,WeatherDisplay:10.36,2013-07-10 04:53:00,
2013-07-09 23:54:00,83.3,67.0,29.91,NE,41,5.8,5.8,58,0.00,CLR,CLR,0.00,WeatherDisplay:10.36,2013-07-10 04:54:00,
2013-07-09 23:55:00,83.3,67.0,29.91,NE,38,5.8,5.8,58,0.00,CLR,CLR,0.00,WeatherDisplay:10.36,2013-07-10 04:55:00,
2013-07-09 23:56:00,83.3,67.0,29.88,NE,41,6.3,6.3,58,0.00,CLR,CLR,0.00,WeatherDisplay:10.36,2013-07-10 04:56:00,
2013-07-09 23:57:00,83.1,66.8,29.88,NE,43,6.3,6.3,58,0.00,CLR,CLR,0.00,WeatherDisplay:10.36,2013-07-10 04:57:00,
2013-07-09 23:58:00,83.1,66.8,29.88,NE,42,3.1,0.0,58,0.00,CLR,CLR,0.00,WeatherDisplay:10.36,2013-07-10 04:58:00,
2013-07-09 23:59:00,83.1,66.8,29.88,NE,39,4.9,4.9,58,0.00,CLR,CLR,0.00,WeatherDisplay:10.36,2013-07-10 04:59:00,